• Join FlightAware (Why Join?)
  • Login
  • US Flag 
09:08PM EDT


 

Airport Tracker/Info


-or-


 

Live Flight TrackerFlight Track Log ✈ UPS1337 ✈ 02-Apr-2014 ✈ KPIE - KSDF

Flight Track Log - Related Links

Times and Time Zones

All times are in EDT time to prevent confusion due to time zone crossing. See the UPS1337 flight status page for this flight to view local times or setup timezone preferences in your user account.

Time Position Orientation Groundspeed Altitude Reporting Facility
EDT Latitude Longitude Course Direction KTS MPH feet Rate Location/Type
09:40PM 27.9167 -82.6833 360° North 169 194 700  Level Tampa TRACON
09:41PM 27.9667 -82.6833 360° North 219 252 2,600 1,260 Climbing Tampa TRACON
09:42PM 28.0333 -82.6500 24° Northeast 257 296 3,000 1,800 Climbing Tampa TRACON
09:43PM 28.1167 -82.6333 10° North 284 327 6,300 3,240 Climbing Tampa TRACON
09:44PM 28.1833 -82.6667 336° Northwest 298 343 9,900 2,040 Climbing Tampa TRACON
09:46PM 28.4064 -82.7275 347° North 357 411 13,500 1,800 Climbing Jacksonville Center
09:47PM 28.5131 -82.7603 345° North 376 433 16,300 2,520 Climbing Jacksonville Center
09:48PM 28.6214 -82.7956 344° North 388 447 18,600 2,280 Climbing Jacksonville Center
09:49PM 28.7342 -82.8286 346° North 400 460 20,900 2,100 Climbing Jacksonville Center
09:50PM 28.8469 -82.8642 345° North 407 468 22,900 2,100 Climbing Jacksonville Center
09:51PM 28.9681 -82.9019 345° North 425 489 25,100 2,160 Climbing Jacksonville Center
09:52PM 29.0850 -82.9400 344° North 433 498 27,200 2,160 Climbing Jacksonville Center
09:53PM 29.2017 -82.9758 345° North 438 504 29,500 1,980 Climbing Jacksonville Center
09:54PM 29.3167 -83.0117 345° North 433 498 31,200 1,620 Climbing Jacksonville Center
09:55PM 29.4272 -83.0475 344° North 423 487 32,800 1,380 Climbing Jacksonville Center
09:56PM 29.5564 -83.0931 343° North 418 481 34,000 600 Climbing Jacksonville Center
09:57PM 29.6672 -83.1267 345° North 418 481 34,000 -60 Level Jacksonville Center
09:58PM 29.7819 -83.1631 345° North 424 488 33,900 -60 Descending Jacksonville Center
09:59PM 29.8925 -83.1969 345° North 417 480 33,900  Level Jacksonville Center
10:00PM 30.0031 -83.2308 345° North 411 473 34,000  Climbing Jacksonville Center
10:01PM 30.1053 -83.2647 344° North 411 473 34,000  Level Jacksonville Center
10:06PM 30.6628 -83.4237 347° North 419 482 34,000  Level FlightAware ADS-B (KTLH)
10:07PM 30.7401 -83.4450 347° North 419 482 34,000  Level FlightAware ADS-B (KTLH)
10:08PM 30.8747 -83.4821 347° North 422 486 34,000  Level FlightAware ADS-B (KTLH)
10:09PM 31.0145 -83.5207 347° North 423 487 34,000  Level FlightAware ADS-B (KTLH)
10:10PM 31.1258 -83.5539 347° North 412 474 34,000  Level Atlanta Center
10:11PM 31.2408 -83.5847 347° North 417 480 34,000  Level Atlanta Center
10:12PM 31.3536 -83.6158 347° North 417 480 34,000  Level Atlanta Center
10:13PM 31.4664 -83.6469 347° North 417 480 34,000  Level Atlanta Center
10:14PM 31.5769 -83.6781 347° North 411 473 34,000  Level Atlanta Center
10:15PM 31.6939 -83.7142 345° North 417 480 34,000  Level Atlanta Center
10:16PM 31.8025 -83.7408 348° North 428 493 34,000  Level Atlanta Center
10:17PM 31.9153 -83.7722 347° North 427 491 34,000  Level Atlanta Center
10:18PM 32.0261 -83.8061 345° North 415 478 34,000  Level Atlanta Center
10:19PM 32.1408 -83.8378 347° North 410 472 34,000  Level Atlanta Center
10:20PM 32.2536 -83.8694 347° North 415 478 34,000  Level Atlanta Center
10:21PM 32.3644 -83.9011 346° North 415 478 34,000  Level Atlanta Center
10:22PM 32.4772 -83.9356 346° North 415 478 34,000  Level Atlanta Center
10:23PM 32.5897 -83.9672 347° North 415 478 34,000  Level Atlanta Center
10:24PM 32.7047 -83.9994 347° North 415 478 34,000  Level Atlanta Center
10:25PM 32.8194 -84.0314 347° North 415 478 34,000  Level Atlanta Center
10:26PM 32.9322 -84.0661 346° North 415 478 34,000  Level Atlanta Center
10:27PM 33.0450 -84.0983 347° North 415 478 34,000  Level Atlanta Center
10:28PM 33.1681 -84.1381 345° North 415 478 34,000  Level Atlanta Center
10:29PM 33.2808 -84.1706 346° North 415 478 34,000  Level Atlanta Center
10:30PM 33.3975 -84.2031 347° North 415 478 34,000  Level Atlanta Center
10:35PM 34.0247 -84.3823 346° North 417 480 34,000  Level FlightAware ADS-B (KDZJ)
10:36PM 34.1010 -84.4050 346° North 416 479 34,000  Level FlightAware ADS-B (KDZJ)
10:37PM 34.1731 -84.4264 346° North 417 480 34,000  Level FlightAware ADS-B (KDZJ)
10:37PM 34.2514 -84.4498 346° North 418 481 34,000  Level FlightAware ADS-B (KDZJ)
10:38PM 34.3260 -84.4720 346° North 412 474 34,000  Level FlightAware ADS-B (KDZJ)
10:39PM 34.4007 -84.4943 346° North 412 474 34,000  Level FlightAware ADS-B (KDZJ)
10:39PM 34.4743 -84.5164 346° North 418 481 34,000  Level FlightAware ADS-B (KDZJ)
10:40PM 34.5530 -84.5398 346° North 416 479 34,000  Level FlightAware ADS-B (KDZJ)
10:41PM 34.6265 -84.5620 346° North 415 478 34,000  Level FlightAware ADS-B (KDZJ)
10:41PM 34.7004 -84.5843 346° North 414 476 34,000  Level FlightAware ADS-B (KDZJ)
10:42PM 34.7781 -84.6077 346° North 415 478 34,000  Level FlightAware ADS-B (KDZJ)
10:43PM 34.8515 -84.6299 346° North 416 479 34,000  Level FlightAware ADS-B (KDZJ)
10:43PM 34.9255 -84.6523 346° North 412 474 34,000  Level FlightAware ADS-B (KDZJ)
10:44PM 35.0023 -84.6756 346° North 414 476 34,000  Level FlightAware ADS-B (KDZJ)
10:45PM 35.0790 -84.6989 346° North 416 479 34,000  Level FlightAware ADS-B (KDZJ)
10:45PM 35.1399 -84.7175 346° North 415 478 34,000  Level FlightAware ADS-B (KDZJ)
10:46PM 35.2285 -84.7445 346° North 414 476 34,000  Level FlightAware ADS-B (KDZJ)
10:47PM 35.3175 -84.7744 346° North 411 473 34,000  Level Atlanta Center
10:48PM 35.4300 -84.8086 346° North 411 473 34,000  Level Atlanta Center
10:49PM 35.5425 -84.8428 346° North 411 473 34,000  Level Atlanta Center
10:50PM 35.6569 -84.8797 345° North 411 473 34,000 -900 Level Atlanta Center
10:51PM 35.7672 -84.9139 346° North 411 473 32,200 -660 Descending Atlanta Center
10:57PM 36.4403 -85.1206 346° North 464 534 30,000 -1,260 Descending FlightAware ADS-B (KBRY)
11:01PM 36.9672 -85.0896 North 418 481 20,200 -2,220 Descending FlightAware ADS-B (KBRY)
11:02PM 37.0729 -85.0685 North 366 421 18,400 -2,040 Descending FlightAware ADS-B (KBRY)
11:03PM 37.1876 -85.0459 North 342 394 15,800 -1,200 Descending FlightAware ADS-B (KBRY)
11:09PM 37.7248 -85.0470 312° West 336 387 10,000 -900 Descending FlightAware ADS-B (KBRY)
11:10PM 37.7883 -85.1362 312° West 339 390 9,900 -60 Descending FlightAware ADS-B (KBRY)
11:11PM 37.8419 -85.2195 308° West 286 329 9,900 -840 Level FlightAware ADS-B (KBRY)
11:13PM 37.8982 -85.3090 309° West 279 321 8,200 -1,560 Descending FlightAware ADS-B (KBRY)
11:14PM 37.9477 -85.3842 311° West 281 323 6,600 -1,020 Descending FlightAware ADS-B (KBRY)
11:15PM 38.0101 -85.4811 292° West 271 312 6,000 -300 Descending FlightAware ADS-B (KBRY)
11:16PM 38.0440 -85.5867 292° West 272 313 6,000  Level FlightAware ADS-B (KBRY)
11:17PM 38.0785 -85.6957 292° West 273 314 6,000  Level FlightAware ADS-B (KBRY)
11:18PM 38.1059 -85.7837 292° West 273 314 6,000 -300 Level FlightAware ADS-B (KBRY)
11:19PM 38.1678 -85.8312 350° North 266 306 5,500 -900 Descending FlightAware ADS-B (KBRY)
11:20PM 38.2376 -85.8464 351° North 254 292 4,300 -1,140 Descending FlightAware ADS-B (KBRY)
11:21PM 38.2645 -85.8518 351° North 247 284 4,000 -480 Descending FlightAware ADS-B
11:21PM 38.2762 -85.8564 334° Northwest 240 276 4,000 -660 Level FlightAware ADS-B
11:21PM 38.3030 -85.8736 332° Northwest 241 277 3,600 -1,140 Descending FlightAware ADS-B
11:22PM 38.3259 -85.8878 345° North 242 278 3,100 -1,140 Descending FlightAware ADS-B
11:22PM 38.3379 -85.8885 15° North 229 264 3,000 -300 Descending FlightAware ADS-B
11:22PM 38.3516 -85.8803 43° Northeast 209 241 3,000  Level FlightAware ADS-B
11:22PM 38.3575 -85.8684 70° East 194 223 3,000  Level FlightAware ADS-B
11:22PM 38.3576 -85.8554 105° East 178 205 3,000  Level FlightAware ADS-B
11:23PM 38.3530 -85.8454 130° Southeast 170 196 3,000  Level FlightAware ADS-B
11:23PM 38.3333 -85.8167 130° Southeast 168 193 3,000 -120 Level Louisville TRACON
11:24PM 38.3069 -85.7858 137° Southeast 180 207 2,900 -480 Descending Indianapolis Center
11:25PM 38.2656 -85.7761 170° South 163 188 2,200 -720 Descending Indianapolis Center